Time;durP1;ratioP1;P1;durP2;ratioP2;P2;SDS_P1;SDS_P2;PMS_P1;PMS_P2;Temp;Humidity;BMP_temperature;BMP_pressure;BME280_temperature;BME280_humidity;BME280_pressure;Samples;Min_cycle;Max_cycle;Signal;HPM_P1;HPM_P2
2022/01/14 10:12:47;;;;;;;28.53;25.83;;;6.70;99.90;;;;;;5086393;27;20542;-74
2022/01/14 10:15:14;;;;;;;28.33;25.87;;;7.80;99.90;;;;;;5086493;28;20458;-75
2022/01/14 10:17:43;;;;;;;30.50;27.90;;;8.60;99.60;;;;;;5086451;28;20439;-75
2022/01/14 10:20:12;;;;;;;30.20;27.23;;;8.80;98.10;;;;;;5086171;28;20503;-77
2022/01/14 10:22:42;;;;;;;30.90;28.10;;;8.80;98.80;;;;;;5086524;28;20454;-76
2022/01/14 10:25:11;;;;;;;30.90;27.80;;;8.80;97.90;;;;;;5086392;28;20456;-77
2022/01/14 10:27:39;;;;;;;31.40;28.50;;;9.00;97.70;;;;;;5086330;28;20846;-76
2022/01/14 10:30:15;;;;;;;31.43;28.73;;;9.10;97.60;;;;;;5086322;28;20464;-76
2022/01/14 10:32:43;;;;;;;29.93;26.93;;;8.90;97.60;;;;;;5086340;28;20469;-76
2022/01/14 10:35:12;;;;;;;29.70;26.83;;;8.40;97.70;;;;;;5086038;28;20447;-76
2022/01/14 10:37:39;;;;;;;25.70;23.50;;;8.20;98.60;;;;;;5086230;28;20875;-76
2022/01/14 10:40:13;;;;;;;28.33;25.83;;;8.10;98.20;;;;;;5086403;28;20454;-76
2022/01/14 10:42:41;;;;;;;29.20;26.60;;;7.80;99.20;;;;;;5086086;28;20445;-76
2022/01/14 10:45:21;;;;;;;30.33;27.83;;;7.70;99.60;;;;;;5086407;28;20960;-75
2022/01/14 10:47:59;;;;;;;29.03;26.30;;;7.90;99.60;;;;;;5086205;28;20545;-76
2022/01/14 10:50:32;;;;;;;31.57;28.67;;;7.70;99.40;;;;;;5085901;28;20488;-75
2022/01/14 10:52:59;;;;;;;29.23;26.50;;;7.60;99.90;;;;;;5085903;28;20455;-76
2022/01/14 10:55:32;;;;;;;29.20;26.70;;;8.10;99.60;;;;;;5085768;28;20465;-75
2022/01/14 10:58:01;;;;;;;30.07;27.27;;;8.30;98.80;;;;;;5085649;28;20451;-76
2022/01/14 11:00:37;;;;;;;29.47;26.67;;;8.30;98.60;;;;;;5085760;28;20439;-75
2022/01/14 11:03:04;;;;;;;27.40;25.10;;;8.30;98.20;;;;;;5085867;28;20516;-76
2022/01/14 11:05:33;;;;;;;24.10;21.93;;;8.60;97.80;;;;;;5085567;28;20785;-75
2022/01/14 11:08:00;;;;;;;26.73;24.40;;;8.80;97.20;;;;;;5085755;28;20500;-75
2022/01/14 11:10:29;;;;;;;27.33;24.93;;;9.00;97.00;;;;;;5085309;28;20448;-75
2022/01/14 11:12:57;;;;;;;27.40;25.20;;;9.30;96.70;;;;;;5076367;28;20451;-76
2022/01/14 11:15:25;;;;;;;28.37;25.67;;;9.90;95.80;;;;;;5072055;28;20463;-75
2022/01/14 11:17:55;;;;;;;26.90;24.33;;;10.40;94.10;;;;;;5072086;28;20450;-75
2022/01/14 11:20:28;;;;;;;26.07;23.90;;;10.40;93.50;;;;;;5072037;28;20459;-76
2022/01/14 11:25:43;;;;;;;27.40;25.20;;;11.20;92.20;;;;;;5071766;28;20418;-74
2022/01/14 11:28:12;;;;;;;27.47;25.23;;;11.50;91.70;;;;;;5071754;28;20450;-74
2022/01/14 11:30:40;;;;;;;25.13;23.00;;;11.80;90.60;;;;;;5071627;28;20483;-75
2022/01/14 11:33:10;;;;;;;28.47;26.07;;;11.30;90.70;;;;;;5071993;28;20451;-75
2022/01/14 11:35:38;;;;;;;30.00;27.20;;;11.50;91.00;;;;;;5071976;28;20497;-74
2022/01/14 11:38:33;;;;;;;31.27;28.10;;;11.40;91.20;;;;;;5071988;28;20463;-74
2022/01/14 11:41:02;;;;;;;28.67;26.10;;;11.60;90.80;;;;;;5071594;28;20452;-75
2022/01/14 11:43:46;;;;;;;28.10;25.30;;;11.60;90.70;;;;;;5071388;28;20687;-75
2022/01/14 11:46:16;;;;;;;28.33;25.80;;;11.50;90.70;;;;;;5071442;28;20702;-75
2022/01/14 11:48:48;;;;;;;28.20;25.67;;;12.20;89.70;;;;;;5071592;28;20584;-75
2022/01/14 11:51:16;;;;;;;26.87;24.57;;;12.50;88.00;;;;;;5071171;28;20763;-75
2022/01/14 11:53:52;;;;;;;28.23;25.27;;;12.10;88.30;;;;;;5071322;28;20451;-75
2022/01/14 11:56:53;;;;;;;28.93;25.90;;;11.80;89.90;;;;;;5071334;28;20453;-74
2022/01/14 11:59:53;;;;;;;28.63;25.70;;;11.60;90.30;;;;;;4989854;28;20449;-75
2022/01/14 12:02:39;;;;;;;27.23;24.60;;;11.30;91.30;;;;;;4931937;29;20474;-75
2022/01/14 12:05:22;;;;;;;27.63;25.17;;;11.40;90.60;;;;;;4994265;28;20453;-75
2022/01/14 12:08:23;;;;;;;29.00;26.40;;;10.80;91.40;;;;;;5051479;28;20459;-75
2022/01/14 12:10:58;;;;;;;27.80;25.27;;;10.20;92.50;;;;;;5071129;28;20526;-74
2022/01/14 12:13:48;;;;;;;27.47;24.93;;;10.70;92.30;;;;;;5071034;28;20450;-74
2022/01/14 12:19:10;;;;;;;30.50;27.80;;;12.00;90.60;;;;;;5070982;28;20430;-75
2022/01/14 12:21:59;;;;;;;28.53;26.23;;;11.80;90.50;;;;;;5071129;28;20459;-75
2022/01/14 12:24:49;;;;;;;29.90;26.90;;;11.40;91.40;;;;;;5069702;28;20491;-76
2022/01/14 12:27:40;;;;;;;26.10;23.67;;;10.70;92.00;;;;;;5070618;28;20443;-75
2022/01/14 12:30:26;;;;;;;27.27;24.77;;;9.90;93.80;;;;;;5071058;28;20473;-75
2022/01/14 12:32:57;;;;;;;27.97;25.57;;;9.70;94.80;;;;;;5070759;28;20841;-75
2022/01/14 12:35:35;;;;;;;28.00;25.50;;;9.90;94.40;;;;;;5070740;28;20447;-74
2022/01/14 12:38:02;;;;;;;29.33;26.97;;;9.60;95.10;;;;;;5070338;28;20537;-75
2022/01/14 12:40:36;;;;;;;27.43;24.57;;;10.00;94.40;;;;;;5070309;28;20474;-75
2022/01/14 12:43:06;;;;;;;28.43;25.60;;;10.30;93.90;;;;;;5070285;28;20447;-74
2022/01/14 12:45:51;;;;;;;29.33;26.57;;;10.20;94.20;;;;;;5070476;28;20459;-74
2022/01/14 12:48:31;;;;;;;29.80;27.20;;;10.00;94.20;;;;;;5070220;28;20455;-75
2022/01/14 12:51:09;;;;;;;27.57;24.73;;;9.80;95.40;;;;;;5070229;28;20636;-76
2022/01/14 12:53:36;;;;;;;27.83;25.10;;;10.10;94.80;;;;;;5070218;28;20865;-74
2022/01/14 12:56:05;;;;;;;29.17;26.07;;;9.90;95.20;;;;;;5070281;28;20452;-76
2022/01/14 12:58:54;;;;;;;29.77;27.20;;;9.50;96.00;;;;;;5070151;28;20450;-76
2022/01/14 13:01:27;;;;;;;30.43;27.50;;;8.70;97.40;;;;;;5070365;28;20475;-76
2022/01/14 13:03:56;;;;;;;27.90;25.10;;;8.20;99.00;;;;;;5069946;28;20471;-76
2022/01/14 13:06:23;;;;;;;34.93;27.83;;;7.90;99.80;;;;;;5069817;28;20450;-76
2022/01/14 13:08:55;;;;;;;29.60;27.10;;;7.80;99.90;;;;;;5069840;28;20456;-76
2022/01/14 13:11:22;;;;;;;27.93;25.10;;;7.80;99.90;;;;;;5069574;28;20491;-74
2022/01/14 13:14:02;;;;;;;27.77;25.07;;;7.80;99.90;;;;;;5069618;28;20821;-75
2022/01/14 13:16:47;;;;;;;27.90;25.40;;;7.80;99.90;;;;;;5069468;28;20985;-74
2022/01/14 13:19:22;;;;;;;26.27;23.87;;;7.80;99.90;;;;;;5069346;28;21004;-75
2022/01/14 13:21:49;;;;;;;26.37;23.90;;;7.80;99.90;;;;;;5069733;28;20464;-74
2022/01/14 13:24:20;;;;;;;26.60;24.00;;;7.80;99.90;;;;;;5069269;28;20816;-74
2022/01/14 13:26:58;;;;;;;26.80;24.33;;;7.90;99.90;;;;;;5069222;28;20836;-74
2022/01/14 13:29:25;;;;;;;26.10;23.73;;;8.00;99.90;;;;;;5069380;28;20453;-74
2022/01/14 13:31:54;;;;;;;26.80;24.23;;;8.00;99.90;;;;;;5069687;28;21009;-76
2022/01/14 13:34:20;;;;;;;27.23;24.60;;;8.10;99.90;;;;;;5069576;28;20455;-76
2022/01/14 13:36:47;;;;;;;26.83;24.40;;;8.20;99.90;;;;;;5068943;28;20483;-76
2022/01/14 13:39:14;;;;;;;28.23;24.97;;;8.30;99.90;;;;;;5069301;28;20453;-73
2022/01/14 13:41:41;;;;;;;26.73;24.43;;;8.30;99.90;;;;;;5069359;28;20443;-74
2022/01/14 13:44:15;;;;;;;26.20;23.90;;;8.40;99.90;;;;;;5069618;28;20853;-75
2022/01/14 13:46:47;;;;;;;27.90;24.17;;;8.30;99.90;;;;;;5069066;28;20449;-76
2022/01/14 13:49:20;;;;;;;27.50;24.83;;;8.30;99.90;;;;;;5069282;28;20454;-76
2022/01/14 13:51:59;;;;;;;28.43;25.83;;;8.40;99.90;;;;;;5069092;28;21088;-76
2022/01/14 13:54:26;;;;;;;27.97;25.27;;;8.40;99.90;;;;;;5069286;28;20462;-74
2022/01/14 13:56:53;;;;;;;25.23;22.87;;;8.50;99.90;;;;;;5069544;28;20455;-75
2022/01/14 13:59:20;;;;;;;28.73;24.43;;;8.60;99.90;;;;;;5069456;28;20465;-75
2022/01/14 14:01:52;;;;;;;27.17;24.67;;;8.60;99.90;;;;;;5069275;28;20443;-74
2022/01/14 14:04:28;;;;;;;27.10;24.60;;;8.60;99.90;;;;;;5069138;28;20465;-75
2022/01/14 14:07:04;;;;;;;26.93;24.40;;;8.70;99.90;;;;;;5069226;28;20459;-75
2022/01/14 14:09:37;;;;;;;27.73;25.00;;;8.70;99.90;;;;;;5069191;28;20455;-75
2022/01/14 14:12:26;;;;;;;25.20;22.93;;;8.70;99.90;;;;;;5068861;28;20501;-75
2022/01/14 14:17:39;;;;;;;25.27;22.67;;;8.60;99.90;;;;;;5069156;28;20433;-75
2022/01/14 14:20:08;;;;;;;25.50;23.00;;;8.50;99.90;;;;;;5069101;28;20455;-75
2022/01/14 14:22:39;;;;;;;26.20;23.93;;;8.50;99.90;;;;;;5069139;28;20438;-75
2022/01/14 14:25:11;;;;;;;26.50;24.10;;;8.40;99.90;;;;;;5069350;28;20458;-74
2022/01/14 14:27:40;;;;;;;26.83;24.50;;;8.50;99.90;;;;;;5069092;28;20561;-75
2022/01/14 14:30:10;;;;;;;25.70;22.97;;;8.40;99.90;;;;;;5069166;28;20481;-75
2022/01/14 14:32:37;;;;;;;507.77;234.37;;;8.30;99.90;;;;;;5068991;28;20494;-76
2022/01/14 14:35:10;;;;;;;28.70;23.50;;;8.30;99.90;;;;;;5068941;28;20512;-75
2022/01/14 14:37:38;;;;;;;28.50;25.50;;;8.30;99.90;;;;;;5068963;28;20541;-75
2022/01/14 14:40:07;;;;;;;28.33;25.60;;;8.20;99.90;;;;;;5069042;28;20469;-75
2022/01/14 14:42:34;;;;;;;27.67;24.83;;;8.20;99.90;;;;;;5068900;28;20443;-74
2022/01/14 14:45:00;;;;;;;27.30;24.60;;;8.10;99.90;;;;;;5068746;28;20431;-74
2022/01/14 14:47:27;;;;;;;28.60;24.97;;;8.20;99.90;;;;;;5069498;28;20447;-75
2022/01/14 14:49:54;;;;;;;27.30;24.50;;;8.10;99.90;;;;;;5072571;28;20445;-74
2022/01/14 14:52:22;;;;;;;25.83;23.30;;;8.10;99.90;;;;;;5072594;28;20486;-75
2022/01/14 14:54:49;;;;;;;26.73;24.43;;;8.10;99.90;;;;;;5072392;28;20910;-74
2022/01/14 14:57:15;;;;;;;26.60;24.00;;;8.00;99.90;;;;;;5072383;28;20463;-75
2022/01/14 14:59:42;;;;;;;36.70;25.13;;;8.00;99.90;;;;;;5072245;28;20454;-73
2022/01/14 15:02:11;;;;;;;25.43;23.03;;;7.90;99.90;;;;;;5072295;28;20454;-74
2022/01/14 15:04:38;;;;;;;25.70;23.13;;;7.90;99.90;;;;;;5072542;28;20455;-73
2022/01/14 15:07:05;;;;;;;26.53;23.93;;;7.70;99.90;;;;;;5072410;28;20940;-74
2022/01/14 15:09:33;;;;;;;27.73;25.03;;;7.70;99.90;;;;;;5071844;28;20448;-74
2022/01/14 15:12:00;;;;;;;26.53;23.93;;;7.60;99.90;;;;;;5071541;28;20493;-76
2022/01/14 15:14:27;;;;;;;28.03;24.70;;;7.50;99.90;;;;;;5071893;28;20454;-73
2022/01/14 15:19:41;;;;;;;28.27;25.43;;;7.30;99.90;;;;;;5072009;28;20443;-75
2022/01/14 15:22:08;;;;;;;28.40;25.33;;;7.10;99.90;;;;;;5072087;28;20577;-75
2022/01/14 15:24:36;;;;;;;29.87;26.87;;;7.00;99.90;;;;;;5072032;28;20449;-75
2022/01/14 15:27:03;;;;;;;37.43;26.53;;;6.90;99.90;;;;;;5071425;28;20943;-75
2022/01/14 15:29:29;;;;;;;873.77;215.80;;;6.80;99.90;;;;;;5071298;28;20639;-75
2022/01/14 15:31:56;;;;;;;30.73;26.90;;;6.50;99.90;;;;;;5071420;28;20492;-75
2022/01/14 15:34:23;;;;;;;37.47;29.13;;;6.40;99.90;;;;;;5071884;28;20457;-75
2022/01/14 15:36:50;;;;;;;32.40;28.80;;;6.20;99.90;;;;;;5071674;28;20446;-75
2022/01/14 15:39:18;;;;;;;33.70;28.57;;;6.00;99.90;;;;;;5071522;28;20464;-75
2022/01/14 15:41:47;;;;;;;37.70;30.33;;;5.80;99.90;;;;;;5071248;28;20700;-76
2022/01/14 15:44:14;;;;;;;38.60;28.93;;;5.70;99.90;;;;;;5071314;28;20504;-75
2022/01/14 15:46:41;;;;;;;32.37;28.93;;;5.60;99.90;;;;;;5071403;28;20455;-75
2022/01/14 15:49:09;;;;;;;32.93;28.53;;;5.60;99.90;;;;;;5071437;28;20455;-75
2022/01/14 15:51:38;;;;;;;33.27;29.77;;;5.60;99.90;;;;;;5071564;28;20483;-75
2022/01/14 15:54:06;;;;;;;31.60;28.70;;;5.60;99.90;;;;;;5071531;28;20543;-76
2022/01/14 15:56:33;;;;;;;35.40;28.60;;;5.60;99.90;;;;;;5071227;28;20471;-75
2022/01/14 15:59:01;;;;;;;34.57;28.00;;;5.40;99.90;;;;;;5071271;28;20459;-76
2022/01/14 16:01:27;;;;;;;34.43;29.77;;;5.40;99.90;;;;;;5070890;28;21052;-74
2022/01/14 16:03:54;;;;;;;33.13;29.20;;;5.40;99.90;;;;;;5070679;28;20467;-75
2022/01/14 16:06:22;;;;;;;31.07;27.50;;;5.40;99.90;;;;;;5071231;28;20455;-73
2022/01/14 16:08:48;;;;;;;32.60;28.40;;;5.30;99.90;;;;;;5070866;28;20450;-74
2022/01/14 16:11:15;;;;;;;34.40;28.23;;;5.20;99.90;;;;;;5070764;28;20493;-75
2022/01/14 16:13:42;;;;;;;32.00;27.67;;;5.10;99.90;;;;;;5070675;28;20493;-74
2022/01/14 16:16:10;;;;;;;29.83;26.77;;;5.00;99.90;;;;;;5070808;28;20459;-74
2022/01/14 16:18:37;;;;;;;36.20;30.37;;;4.90;99.90;;;;;;5071157;28;20448;-75
2022/01/14 16:21:05;;;;;;;31.77;28.57;;;4.70;99.90;;;;;;5070849;28;20812;-74
2022/01/14 16:23:31;;;;;;;33.00;26.90;;;4.60;99.90;;;;;;5070796;28;20471;-75
2022/01/14 16:25:59;;;;;;;31.30;28.53;;;4.50;99.90;;;;;;5070524;28;20455;-74
2022/01/14 16:28:26;;;;;;;31.60;28.47;;;4.40;99.90;;;;;;5070529;28;20957;-74
2022/01/14 16:30:58;;;;;;;32.30;29.20;;;4.30;99.90;;;;;;5070700;28;20458;-74
2022/01/14 16:33:27;;;;;;;32.83;28.73;;;4.20;99.90;;;;;;5070283;28;20491;-74
2022/01/14 16:35:58;;;;;;;36.43;31.67;;;4.10;99.90;;;;;;5070437;28;20482;-75
2022/01/14 16:38:25;;;;;;;34.47;30.73;;;3.90;99.90;;;;;;5070340;28;20463;-75
2022/01/14 16:40:51;;;;;;;32.97;29.70;;;3.80;99.90;;;;;;5070581;28;20453;-75
2022/01/14 16:43:20;;;;;;;32.17;29.20;;;3.70;99.90;;;;;;5070278;28;20950;-75
2022/01/14 16:45:47;;;;;;;33.40;30.30;;;3.60;99.90;;;;;;5070161;28;20541;-75
2022/01/14 16:48:15;;;;;;;32.30;29.30;;;3.50;99.90;;;;;;5069961;28;20581;-75
2022/01/14 16:50:43;;;;;;;42.23;29.77;;;3.40;99.90;;;;;;5070064;28;20440;-75
2022/01/14 16:53:10;;;;;;;31.73;28.30;;;3.40;99.90;;;;;;5070069;28;20494;-74
2022/01/14 16:55:37;;;;;;;31.30;28.30;;;3.40;99.90;;;;;;5070279;28;20454;-75
2022/01/14 16:58:05;;;;;;;34.97;30.47;;;3.20;99.90;;;;;;5070166;28;20966;-75
2022/01/14 17:00:31;;;;;;;33.60;30.40;;;3.10;99.90;;;;;;5069800;28;20454;-74
2022/01/14 17:02:58;;;;;;;34.07;30.40;;;2.90;99.90;;;;;;5069509;28;20463;-73
2022/01/14 17:05:25;;;;;;;32.37;29.33;;;2.80;99.90;;;;;;5069767;28;20454;-74
2022/01/14 17:07:53;;;;;;;33.10;29.77;;;2.80;99.90;;;;;;5070001;28;20457;-74
2022/01/14 17:10:19;;;;;;;35.03;31.23;;;2.70;99.90;;;;;;5069016;28;20453;-74
2022/01/14 17:12:46;;;;;;;34.83;31.33;;;2.70;99.90;;;;;;5069473;28;20491;-74
2022/01/14 17:15:13;;;;;;;36.47;32.77;;;2.70;99.90;;;;;;5069711;28;20447;-74
2022/01/14 17:17:40;;;;;;;34.80;31.70;;;2.80;99.90;;;;;;5069429;28;20816;-74
2022/01/14 17:20:08;;;;;;;35.60;32.33;;;2.80;99.90;;;;;;5069713;28;20451;-74
2022/01/14 17:22:35;;;;;;;34.30;30.80;;;2.70;99.90;;;;;;5069695;28;20982;-74
2022/01/14 17:25:03;;;;;;;33.27;29.77;;;2.60;99.90;;;;;;5069333;28;20517;-75
2022/01/14 17:27:30;;;;;;;34.97;31.20;;;2.60;99.90;;;;;;5069453;28;20588;-75
2022/01/14 17:29:57;;;;;;;34.40;31.20;;;2.50;99.90;;;;;;5069272;28;20457;-75
2022/01/14 17:32:24;;;;;;;33.10;29.57;;;2.50;99.90;;;;;;5069427;28;20458;-74
2022/01/14 17:34:51;;;;;;;34.67;31.20;;;2.50;99.90;;;;;;5069526;28;20517;-75
2022/01/14 17:37:18;;;;;;;32.53;29.17;;;2.50;99.90;;;;;;5069183;28;20445;-74
2022/01/14 17:39:44;;;;;;;33.60;30.10;;;2.50;99.90;;;;;;5069183;28;20450;-74
2022/01/14 17:42:16;;;;;;;36.13;32.53;;;2.50;99.90;;;;;;5069201;28;20454;-74
2022/01/14 17:44:43;;;;;;;36.47;32.53;;;2.50;99.90;;;;;;5069096;28;20457;-75
2022/01/14 17:47:09;;;;;;;40.63;35.83;;;2.40;99.90;;;;;;5069442;28;20816;-74
2022/01/14 17:49:36;;;;;;;39.50;35.60;;;2.40;99.90;;;;;;5069611;28;20451;-74
2022/01/14 17:52:04;;;;;;;37.03;33.37;;;2.40;99.90;;;;;;5069301;28;20437;-74
2022/01/14 17:54:31;;;;;;;42.03;34.43;;;2.40;99.90;;;;;;5069154;28;20586;-74
2022/01/14 17:56:58;;;;;;;40.47;36.33;;;2.30;99.90;;;;;;5069064;28;20452;-75
2022/01/14 17:59:26;;;;;;;44.67;39.93;;;2.20;99.90;;;;;;5068926;28;20510;-75
